This is the latest recevied weather packets stored in our database for station/object TA8CW-13. If no packets are shown the sender has not sent any weather packets the latest 10 day(s).
| Time | Temp. | Humidity | Pressure | Rain* | Wind** | Luminosity | Snow |
|---|---|---|---|---|---|---|---|
| 1777933746 | 6.67° C | 91% | 1011.2 hPa | 0 mm | - | 0 W/m² | - |
| 1777929483 | 7.22° C | 90% | 1010.9 hPa | 0 mm | - | 0 W/m² | - |
| 1777925221 | 7.22° C | 90% | 1011.1 hPa | 0 mm | - | 0 W/m² | - |
| 1777920447 | 7.22° C | 87% | 1010.4 hPa | 0 mm | - | 0 W/m² | - |
| 1777914125 | 8.33° C | 84% | 1009.1 hPa | 0 mm | - | 1 W/m² | - |
| 1777907667 | 8.33° C | 84% | 1007.8 hPa | 1.02 mm | - | 68 W/m² | - |
| 1777899552 | 10° C | 79% | 1008.5 hPa | 0.25 mm | - | 329 W/m² | - |
| 1777893452 | 10.56° C | 74% | 1009.4 hPa | 0 mm | - | 482 W/m² | - |
| 1777885793 | 10° C | 78% | 1011 hPa | 0.25 mm | - | 319 W/m² | - |
| 1777877424 | 9.44° C | 69% | 1010.8 hPa | 0 mm | - | 417 W/m² | - |
| 1777867425 | 7.22° C | 84% | 1010.7 hPa | 0 mm | - | 113 W/m² | - |
| 1777853024 | 8.33° C | 88% | 1008.8 hPa | 0 mm | - | 0 W/m² | - |
| 1777849881 | 8.89° C | 87% | 1008.5 hPa | 0 mm | - | 0 W/m² | - |
| 1777847205 | 9.44° C | 88% | 1007.9 hPa | 0 mm | - | 0 W/m² | - |
| 1777844957 | 10° C | 87% | 1007.7 hPa | 0 mm | - | 0 W/m² | - |
| 1777841809 | 10.56° C | 86% | 1007.2 hPa | 0 mm | - | 0 W/m² | - |
| 1777838490 | 11.11° C | 86% | 1007.2 hPa | 0 mm | - | 0 W/m² | - |
| 1777835635 | 11.11° C | 89% | 1006.4 hPa | 0 mm | - | 0 W/m² | - |
| 1777831335 | 11.67° C | 85% | 1005.9 hPa | 0 mm | - | 0 W/m² | - |
| 1777828096 | 12.22° C | 80% | 1004.5 hPa | 0 mm | - | 2 W/m² | - |
| 1777824651 | 13.89° C | 80% | 1003.5 hPa | 0 mm | - | 43 W/m² | - |
| 1777822037 | 15° C | 84% | 1003.7 hPa | 1.78 mm | - | 46 W/m² | - |
| 1777818997 | 15.56° C | 85% | 1003.3 hPa | 5.59 mm | - | 93 W/m² | - |
| 1777815905 | 16.11° C | 76% | 1002.9 hPa | 0.76 mm | - | 202 W/m² | - |
| 1777809911 | 18.89° C | 67% | 1003.7 hPa | 0 mm | - | 474 W/m² | - |
* Rain latest hour (hover to see other rain measurements)
** Current wind speed in m/s (hover to see current wind gust speed)